Terminal Aerodrome Forecast
Issued by NWS

Home | Current Version | Previous Version | Text Only | Print | Product List | Glossary On
Versions: 1 2 3 4 5 6 7 8 9 10 11 12 13 14 15 16 17 18 19 20
000
FTUS41 KBOX 280900 AAA
TAFACK
TAF AMD
KACK 280900Z 2809/2906 21007KT P6SM SCT080
     FM281000 21007KT 5SM BR SCT120
     FM281200 21007KT P6SM FEW250=

USA.gov is the U.S. government's official web portal to all federal, state and local government web resources and services.